EGLL Airport Information

Runway Information
Runway 09L Length 12799 ft width 164 ft
Elevation 79 ft Threshold 1007 ft Heading 90
Runway 27R Length 12799 ft Width 164 ft
Elevation 78 ft Threshold 0 ft Heading 270
Runway 09R Length 12001 ft width 148 ft
Elevation 75 ft Threshold 1013 ft Heading 90
Runway 27L Length 12001 ft Width 148 ft
Elevation 77 ft Threshold 0 ft Heading 270
Airport Frequencies
Type APP Name APP Frequency 119.725 MHZ
Type ATIS Name ATIS Frequency 128.075 MHZ
Type CLD Name CLNC DEL Frequency 121.975 MHZ
Type GND Name GND Frequency 121.7 MHZ
Type TWR Name TWR Frequency 118.475 MHZ
Airport Navaids
Type VOR-DME Name London Frequency 113600 KHZ
Airport Weather Information & NOTAM
ADDS - METARS form results

(1957 UTC 21 March 2019)
Data provider http://aviationweather.gov/metar/data/
 
METAR text: EGLL 211950Z AUTO VRB03KT 9999 BKN022 OVC026 13/08 Q1032 NOSIG
Conditions at: EGLL (LONDON/HEATHROW , GB) observed 1950 UTC 21 March 2019
Temperature: 13.0°C (55°F)
Dewpoint: 8.0°C (46°F) [RH = 72%]
Pressure (altimeter): 30.47 inches Hg (1032.0 mb)
Winds: variable direction winds at 3 MPH (3 knots; 1.5 m/s)
Visibility: 6 or more miles (10+ km)
Ceiling: 2200 feet AGL
Clouds: broken clouds at 2200 feet AGL
overcast cloud deck at 2600 feet AGL
Weather: no significant weather observed at this time

METAR text: EGLL 211920Z AUTO VRB03KT 9999 OVC022 13/08 Q1032 NOSIG
Conditions at: EGLL (LONDON/HEATHROW , GB) observed 1920 UTC 21 March 2019
Temperature: 13.0°C (55°F)
Dewpoint: 8.0°C (46°F) [RH = 72%]
Pressure (altimeter): 30.47 inches Hg (1032.0 mb)
Winds: variable direction winds at 3 MPH (3 knots; 1.5 m/s)
Visibility: 6 or more miles (10+ km)
Ceiling: 2200 feet AGL
Clouds: overcast cloud deck at 2200 feet AGL
Weather: no significant weather observed at this time

Forecast for: EGLL (LONDON/HEATHROW , GB)
Text: TAF EGLL 211654Z 2118/2224 24006KT 9999 BKN016
Forecast period: 1800 UTC 21 March 2019 to 0000 UTC 23 March 2019
Forecast type: FROM: standard forecast or significant change
Winds: from the WSW (240 degrees) at 7 MPH (6 knots; 3.1 m/s)
Visibility: 6 or more miles 10+ km)
Ceiling: 1600 feet AGL
Clouds: broken clouds at 1600 feet AGL
Weather: no significant weather forecast for this period
Text: TEMPO 2118/2208 8000 BKN010
Forecast period: 1800 UTC 21 March 2019 to 0800 UTC 22 March 2019
Forecast type: TEMPORARY: The following changes expected for less than half the time period
Visibility: 5 miles (8 km)
Ceiling: 1000 feet AGL
Clouds: broken clouds at 1000 feet AGL
Weather: no significant weather forecast for this period
Text: PROB30
Forecast period: 0000 to 0600 UTC 22 March 2019
Forecast type: TEMPORARY: The following changes expected for less than half the time period
Visibility: missing
Ceiling: 700 feet AGL
Clouds: broken clouds at 700 feet AGL
Weather: no significant weather forecast for this period